createdAt,value
2019-01-04T00:00:52.847Z,81.28
2019-01-04T00:03:21.821Z,80.62
2019-01-04T00:05:50.834Z,80.72
2019-01-04T00:08:19.732Z,81.24
2019-01-04T00:10:48.374Z,81.46
2019-01-04T00:13:17.013Z,81.81
2019-01-04T00:15:45.645Z,81.75
2019-01-04T00:18:14.531Z,81.38
2019-01-04T00:20:43.508Z,81.76
2019-01-04T00:23:12.757Z,82.11
2019-01-04T00:25:42.363Z,83.29
2019-01-04T00:28:11.525Z,82.60
2019-01-04T00:30:40.442Z,82.00
2019-01-04T00:33:09.336Z,82.22
2019-01-04T00:35:38.224Z,82.16
2019-01-04T00:38:07.430Z,82.17
2019-01-04T00:55:31.711Z,82.23
2019-01-04T00:58:18.530Z,82.02
2019-01-04T01:01:28.273Z,82.27
2019-01-04T01:04:26.858Z,82.33
2019-01-04T01:07:12.022Z,81.91
2019-01-04T01:10:06.899Z,81.34
2019-01-04T01:13:12.076Z,80.96
2019-01-04T01:16:09.261Z,81.13
2019-01-04T01:19:15.907Z,81.18
2019-01-04T01:22:16.421Z,81.36
2019-01-04T01:25:44.479Z,81.10
2019-01-04T01:29:07.168Z,81.07
2019-01-04T01:32:13.437Z,81.17
2019-01-04T01:35:25.268Z,81.52
2019-01-04T01:38:30.135Z,81.18
2019-01-04T01:41:34.561Z,81.16
2019-01-04T01:44:49.157Z,80.84
2019-01-04T01:47:32.956Z,80.34
2019-01-04T01:50:33.964Z,80.26
2019-01-04T01:53:02.620Z,80.92
2019-01-04T01:55:31.242Z,80.38
2019-01-04T01:58:00.205Z,80.45
2019-01-04T02:00:29.713Z,80.29
2019-01-04T02:02:58.909Z,80.94
2019-01-04T02:05:27.841Z,80.90
2019-01-04T02:07:56.452Z,81.43
2019-01-04T02:10:25.378Z,81.40
2019-01-04T02:12:54.309Z,81.10
2019-01-04T02:15:22.906Z,80.99
2019-01-04T02:17:51.554Z,81.57
2019-01-04T02:20:20.177Z,81.62
2019-01-04T02:22:49.734Z,81.66
2019-01-04T02:25:18.353Z,81.20
2019-01-04T02:27:47.088Z,81.89
2019-01-04T02:30:15.697Z,81.45
2019-01-04T02:32:44.683Z,81.60
2019-01-04T02:35:13.675Z,81.67
2019-01-04T02:37:42.671Z,81.58
2019-01-04T02:40:11.549Z,81.24
2019-01-04T02:42:40.770Z,81.50
2019-01-04T02:45:09.768Z,81.54
2019-01-04T02:47:38.397Z,81.61
2019-01-04T02:50:07.370Z,81.42
2019-01-04T02:52:36.389Z,81.60
2019-01-04T02:55:05.124Z,81.54
2019-01-04T02:57:34.014Z,81.13
2019-01-04T03:00:02.908Z,81.17
2019-01-04T03:02:32.099Z,81.11
2019-01-04T03:05:00.795Z,81.01
2019-01-04T03:07:29.687Z,81.22
2019-01-04T03:09:58.979Z,81.50
2019-01-04T03:12:27.870Z,81.59
2019-01-04T03:14:56.483Z,81.25
2019-01-04T03:17:25.450Z,81.46
2019-01-04T03:19:54.446Z,81.33
2019-01-04T03:22:23.335Z,81.25
2019-01-04T03:24:52.326Z,81.56
2019-01-04T03:27:20.950Z,81.86
2019-01-04T03:29:49.593Z,82.10
2019-01-04T03:32:18.249Z,81.80
2019-01-04T03:34:47.377Z,81.73
2019-01-04T03:37:16.012Z,81.63
2019-01-04T03:39:44.962Z,81.65
2019-01-04T03:42:13.643Z,81.31
2019-01-04T03:44:42.255Z,81.77
2019-01-04T03:47:11.217Z,81.74
2019-01-04T03:49:40.419Z,81.69
2019-01-04T03:52:09.613Z,82.08
2019-01-04T03:54:38.252Z,82.21
2019-01-04T03:57:06.889Z,81.87
2019-01-04T03:59:36.182Z,82.23
2019-01-04T04:02:05.178Z,82.54
2019-01-04T04:04:34.073Z,82.91
2019-01-04T04:07:02.700Z,83.14
2019-01-04T04:09:31.634Z,83.46
2019-01-04T04:12:00.500Z,83.24
2019-01-04T04:14:29.160Z,83.36
2019-01-04T04:16:58.116Z,83.16
2019-01-04T04:19:26.735Z,83.09
2019-01-04T04:21:55.687Z,82.86
2019-01-04T04:24:24.602Z,82.68
2019-01-04T04:26:53.789Z,83.12
2019-01-04T04:29:22.521Z,82.76
2019-01-04T04:31:51.772Z,82.59
2019-01-04T04:34:20.940Z,82.75
2019-01-04T04:36:49.907Z,82.84
2019-01-04T04:39:18.516Z,82.94
2019-01-04T04:41:47.753Z,83.61
2019-01-04T04:44:16.400Z,83.73
2019-01-04T04:46:45.624Z,84.02
2019-01-04T04:49:14.256Z,84.58
2019-01-04T04:51:43.112Z,85.01
2019-01-04T04:54:11.722Z,85.33
2019-01-04T04:56:40.693Z,85.53
2019-01-04T04:59:09.684Z,85.37
2019-01-04T05:01:38.309Z,85.55
2019-01-04T05:04:07.215Z,85.70
2019-01-04T05:06:35.879Z,85.70
2019-01-04T05:09:06.557Z,85.71
2019-01-04T05:11:35.802Z,86.37
2019-01-04T05:14:04.487Z,86.78
2019-01-04T05:16:33.456Z,86.56
2019-01-04T05:19:02.343Z,86.31
2019-01-04T05:21:31.010Z,86.03
2019-01-04T05:24:00.228Z,85.94
2019-01-04T05:26:28.852Z,86.18
2019-01-04T05:28:57.500Z,86.12
2019-01-04T05:31:26.402Z,86.11
2019-01-04T05:33:55.037Z,85.98
2019-01-04T05:36:23.642Z,86.56
2019-01-04T05:38:52.280Z,86.40
2019-01-04T05:41:20.945Z,85.98
2019-01-04T05:43:49.636Z,85.53
2019-01-04T05:46:18.596Z,85.29
2019-01-04T05:48:47.254Z,84.97
2019-01-04T05:51:15.905Z,85.16
2019-01-04T05:53:44.775Z,85.37
2019-01-04T05:56:13.450Z,85.35
2019-01-04T05:58:42.062Z,85.54
2019-01-04T06:01:10.671Z,85.11
2019-01-04T06:03:39.934Z,85.04
2019-01-04T06:06:08.527Z,85.35
2019-01-04T06:08:37.480Z,85.42
2019-01-04T06:11:06.403Z,85.91
2019-01-04T06:13:35.384Z,86.03
2019-01-04T06:16:03.992Z,86.41
2019-01-04T06:18:32.956Z,86.66
2019-01-04T06:21:01.867Z,87.05
2019-01-04T06:23:31.061Z,86.62
2019-01-04T06:26:00.057Z,86.73
2019-01-04T06:28:28.644Z,86.44
2019-01-04T06:30:57.532Z,85.86
2019-01-04T06:33:26.524Z,85.72
2019-01-04T06:35:55.719Z,85.78
2019-01-04T06:38:24.350Z,85.69
2019-01-04T06:40:53.297Z,85.23
2019-01-04T06:43:22.187Z,85.16
2019-01-04T06:45:50.819Z,84.95
2019-01-04T06:48:19.452Z,85.19
2019-01-04T06:50:48.339Z,84.84
2019-01-04T06:53:17.547Z,85.10
2019-01-04T06:55:55.283Z,85.27
2019-01-04T06:58:23.952Z,85.53
2019-01-04T07:00:52.679Z,86.42
2019-01-04T07:03:21.618Z,86.68
2019-01-04T07:05:50.342Z,86.71
2019-01-04T07:08:18.975Z,87.25
2019-01-04T07:10:47.877Z,87.44
2019-01-04T07:13:17.079Z,87.82
2019-01-04T07:15:46.374Z,87.96
2019-01-04T07:18:15.277Z,88.18
2019-01-04T07:20:44.014Z,87.78
2019-01-04T07:23:13.199Z,87.61
2019-01-04T07:25:42.455Z,87.68
2019-01-04T07:28:11.093Z,87.73
2019-01-04T07:30:40.030Z,88.21
2019-01-04T07:33:08.920Z,88.08
2019-01-04T07:35:37.536Z,88.06
2019-01-04T07:38:06.458Z,87.96
2019-01-04T07:40:35.091Z,87.82
2019-01-04T07:43:04.075Z,87.79
2019-01-04T07:45:33.071Z,87.83
2019-01-04T07:48:01.962Z,87.82
2019-01-04T07:50:30.954Z,87.98
2019-01-04T07:52:59.846Z,87.89
2019-01-04T07:55:28.459Z,87.72
2019-01-04T07:57:57.135Z,88.03
2019-01-04T08:00:26.102Z,87.98
2019-01-04T08:02:57.265Z,88.39
2019-01-04T08:05:27.443Z,88.40
2019-01-04T08:07:56.367Z,88.46
2019-01-04T08:10:25.312Z,88.79
2019-01-04T08:12:54.253Z,89.20
2019-01-04T08:15:22.950Z,89.02
2019-01-04T08:17:51.848Z,89.07
2019-01-04T08:20:20.501Z,89.31
2019-01-04T08:22:49.126Z,89.29
2019-01-04T08:25:17.839Z,89.47
2019-01-04T08:27:46.800Z,89.20
2019-01-04T08:30:17.803Z,89.32
2019-01-04T08:32:46.417Z,89.40
2019-01-04T08:35:15.435Z,89.56
2019-01-04T08:37:44.496Z,89.92
2019-01-04T08:40:14.192Z,89.93
2019-01-04T08:42:43.037Z,90.02
2019-01-04T08:45:15.985Z,90.18
2019-01-04T08:47:44.687Z,90.14
2019-01-04T08:50:14.589Z,89.99
2019-01-04T08:52:43.386Z,90.37
2019-01-04T08:55:15.748Z,90.17
2019-01-04T08:57:44.747Z,90.15
2019-01-04T09:00:14.246Z,90.06
2019-01-04T09:02:43.137Z,90.11
2019-01-04T09:05:12.029Z,90.44
2019-01-04T09:07:40.920Z,90.13
2019-01-04T09:10:09.914Z,89.78
2019-01-04T09:12:38.817Z,90.01
2019-01-04T09:15:10.361Z,90.31
2019-01-04T09:17:39.661Z,90.29
2019-01-04T09:20:10.496Z,90.22
2019-01-04T09:22:39.797Z,90.31
2019-01-04T09:25:09.789Z,89.99
2019-01-04T09:27:38.943Z,89.85
2019-01-04T09:30:10.407Z,89.92
2019-01-04T09:32:39.331Z,89.78
2019-01-04T09:35:08.028Z,89.85
2019-01-04T09:37:36.642Z,89.87
2019-01-04T09:40:06.407Z,89.49
2019-01-04T09:42:35.113Z,89.42
2019-01-04T09:45:04.124Z,89.43
2019-01-04T09:47:33.016Z,89.51
2019-01-04T09:50:01.902Z,89.34
2019-01-04T09:52:30.775Z,89.18
2019-01-04T09:54:59.489Z,89.73
2019-01-04T09:57:28.368Z,89.64
2019-01-04T09:59:57.260Z,89.60
2019-01-04T10:02:25.907Z,89.78
2019-01-04T10:04:54.578Z,89.31
2019-01-04T10:07:23.165Z,89.05
2019-01-04T10:09:52.115Z,89.60
2019-01-04T10:12:20.768Z,89.64
2019-01-04T10:14:49.689Z,89.75
2019-01-04T10:17:18.575Z,89.67
2019-01-04T10:19:47.575Z,89.47
2019-01-04T10:22:16.180Z,89.50
2019-01-04T10:24:45.050Z,89.62
2019-01-04T10:27:13.709Z,89.66
2019-01-04T10:29:42.346Z,89.43
2019-01-04T10:32:11.214Z,89.39
2019-01-04T10:34:39.925Z,89.35
2019-01-04T10:37:08.891Z,89.40
2019-01-04T10:39:37.796Z,89.35
2019-01-04T10:42:06.401Z,89.09
2019-01-04T10:44:35.666Z,88.94
2019-01-04T10:47:04.368Z,88.97
2019-01-04T10:49:33.005Z,88.79
2019-01-04T10:52:01.609Z,88.29
2019-01-04T10:54:30.323Z,88.54
2019-01-04T10:56:59.623Z,88.50
2019-01-04T10:59:28.530Z,88.44
2019-01-04T11:01:57.505Z,88.29
2019-01-04T11:04:26.407Z,88.14
2019-01-04T11:06:55.045Z,87.80
2019-01-04T11:09:24.081Z,88.11
2019-01-04T11:11:53.238Z,87.65
2019-01-04T11:14:21.937Z,87.56
2019-01-04T11:16:50.852Z,87.48
2019-01-04T11:19:19.468Z,87.57
2019-01-04T11:21:48.428Z,87.09
2019-01-04T11:24:45.666Z,86.93
2019-01-04T11:27:25.899Z,86.75
2019-01-04T11:30:34.028Z,86.59
2019-01-04T11:33:48.715Z,86.73
2019-01-04T11:36:56.765Z,87.17
2019-01-04T11:39:50.785Z,86.86
2019-01-04T11:42:55.623Z,86.93
2019-01-04T11:45:55.644Z,86.99
2019-01-04T11:48:52.099Z,86.75
2019-01-04T11:51:46.656Z,87.12
2019-01-04T11:54:19.474Z,87.05
2019-01-04T11:56:49.084Z,86.57
2019-01-04T11:59:17.976Z,86.57
2019-01-04T12:01:46.965Z,86.74
2019-01-04T12:04:15.856Z,87.34
2019-01-04T12:06:44.478Z,86.98
2019-01-04T12:09:13.744Z,87.19
2019-01-04T12:11:42.365Z,86.84
2019-01-04T12:14:10.963Z,86.17
2019-01-04T12:16:39.901Z,86.19
2019-01-04T12:19:08.503Z,85.86
2019-01-04T12:21:37.158Z,85.68
2019-01-04T12:24:06.065Z,85.35
2019-01-04T12:26:35.062Z,84.96
2019-01-04T12:29:03.949Z,85.57
2019-01-04T12:31:32.603Z,85.58
2019-01-04T12:34:01.526Z,85.87
2019-01-04T12:36:30.421Z,86.02
2019-01-04T12:38:59.058Z,86.02
2019-01-04T12:41:27.725Z,85.24
2019-01-04T12:43:56.364Z,85.54
2019-01-04T12:46:25.014Z,85.06
2019-01-04T12:48:53.955Z,84.75
2019-01-04T12:51:23.048Z,84.80
2019-01-04T12:53:51.681Z,84.50
2019-01-04T12:56:20.729Z,84.27
2019-01-04T12:58:49.631Z,84.38
2019-01-04T13:01:18.517Z,84.35
2019-01-04T13:03:47.146Z,83.85
2019-01-04T13:06:16.096Z,83.67
2019-01-04T13:08:45.093Z,83.59
2019-01-04T13:11:14.082Z,83.55
2019-01-04T13:13:43.013Z,83.31
2019-01-04T13:16:11.645Z,83.34
2019-01-04T13:18:40.273Z,83.65
2019-01-04T13:21:09.235Z,83.97
2019-01-04T13:23:37.859Z,83.81
2019-01-04T13:26:06.505Z,83.54
2019-01-04T13:28:35.147Z,82.85
2019-01-04T13:31:04.392Z,82.97
2019-01-04T13:33:33.002Z,83.83
2019-01-04T13:36:01.606Z,84.27
2019-01-04T13:38:30.552Z,84.91
2019-01-04T13:40:59.200Z,85.08
2019-01-04T13:43:27.944Z,85.08
2019-01-04T13:45:56.532Z,85.42
2019-01-04T13:48:25.503Z,85.38
2019-01-04T13:50:54.141Z,85.05
2019-01-04T13:53:22.786Z,85.07
2019-01-04T13:55:51.656Z,85.50
2019-01-04T13:58:20.293Z,85.37
2019-01-04T14:00:49.238Z,85.30
2019-01-04T14:03:18.130Z,85.24
2019-01-04T14:05:47.021Z,85.28
2019-01-04T14:08:15.912Z,85.28
2019-01-04T14:10:44.803Z,85.63
2019-01-04T14:13:13.448Z,85.97
2019-01-04T14:15:42.099Z,85.97
2019-01-04T14:18:10.968Z,85.86
2019-01-04T14:20:40.175Z,86.35
2019-01-04T14:23:08.845Z,86.37
2019-01-04T14:25:37.748Z,86.69
2019-01-04T14:28:06.384Z,86.84
2019-01-04T14:30:35.327Z,86.84
2019-01-04T14:33:03.949Z,86.59
2019-01-04T14:35:32.595Z,86.77
2019-01-04T14:38:01.225Z,86.71
2019-01-04T14:40:29.840Z,87.14
2019-01-04T14:42:58.752Z,87.30
2019-01-04T14:45:27.645Z,87.04
2019-01-04T14:47:56.537Z,87.19
2019-01-04T14:50:25.165Z,86.89
2019-01-04T14:52:53.874Z,86.87
2019-01-04T14:55:22.819Z,86.56
2019-01-04T14:57:51.461Z,86.79
2019-01-04T15:00:20.582Z,85.98
2019-01-04T15:02:49.474Z,85.98
2019-01-04T15:05:18.153Z,86.04
2019-01-04T15:07:46.768Z,85.69
2019-01-04T15:10:15.391Z,85.72
2019-01-04T15:12:44.321Z,85.72
2019-01-04T15:15:13.625Z,85.70
2019-01-04T15:17:42.823Z,85.34
2019-01-04T15:20:11.544Z,85.34
2019-01-04T15:22:40.499Z,84.96
2019-01-04T15:25:09.206Z,85.00
2019-01-04T15:27:37.839Z,85.00
2019-01-04T15:30:09.221Z,84.90
2019-01-04T15:32:38.220Z,84.79
2019-01-04T15:35:07.212Z,85.06
2019-01-04T15:37:37.225Z,85.12
2019-01-04T15:40:07.408Z,85.24
2019-01-04T15:42:36.034Z,85.60
2019-01-04T15:45:05.640Z,85.56
2019-01-04T15:47:34.534Z,85.33
2019-01-04T15:50:03.630Z,85.72
2019-01-04T15:52:32.551Z,85.58
2019-01-04T15:55:01.259Z,85.58
2019-01-04T15:57:30.204Z,85.60
2019-01-04T15:59:58.837Z,86.06
2019-01-04T16:02:27.778Z,86.12
2019-01-04T16:04:56.399Z,85.85
2019-01-04T16:07:25.355Z,86.16
2019-01-04T16:09:54.657Z,86.33
2019-01-04T16:12:23.266Z,86.43
2019-01-04T16:14:52.528Z,86.44
2019-01-04T16:17:21.405Z,86.64
2019-01-04T16:19:50.630Z,86.96
2019-01-04T16:22:19.308Z,87.37
2019-01-04T16:24:47.924Z,87.40
2019-01-04T16:27:16.553Z,87.45
2019-01-04T16:29:45.501Z,87.23
2019-01-04T16:32:14.137Z,87.10
2019-01-04T16:34:42.772Z,87.29
2019-01-04T16:37:11.751Z,87.48
2019-01-04T16:39:40.634Z,87.48
2019-01-04T16:42:09.274Z,87.26
2019-01-04T16:44:38.525Z,87.02
2019-01-04T16:47:07.509Z,87.02
2019-01-04T16:49:38.983Z,86.88
2019-01-04T16:52:07.621Z,86.85
2019-01-04T16:54:36.541Z,86.87
2019-01-04T16:57:05.638Z,86.64
2019-01-04T16:59:34.285Z,86.71
2019-01-04T17:02:02.905Z,86.71
2019-01-04T17:04:31.799Z,86.61
2019-01-04T17:07:00.690Z,86.61
2019-01-04T17:09:29.490Z,86.57
2019-01-04T17:11:58.128Z,87.00
2019-01-04T17:14:27.059Z,87.09
2019-01-04T17:16:56.052Z,87.11
2019-01-04T17:19:25.045Z,87.11
2019-01-04T17:21:54.038Z,87.36
2019-01-04T17:24:22.928Z,87.49
2019-01-04T17:26:51.578Z,87.90
2019-01-04T17:29:20.815Z,87.98
2019-01-04T17:31:49.432Z,88.76
2019-01-04T17:34:18.151Z,88.76
2019-01-04T17:36:46.743Z,88.68
2019-01-04T17:39:15.521Z,88.29
2019-01-04T17:41:44.454Z,88.29
2019-01-04T17:44:13.342Z,88.21
2019-01-04T17:46:42.009Z,88.40
2019-01-04T17:49:10.924Z,88.40
2019-01-04T17:51:40.121Z,88.24
2019-01-04T17:54:09.114Z,87.99
2019-01-04T17:56:37.765Z,87.30
2019-01-04T17:59:06.691Z,87.96
2019-01-04T18:01:35.686Z,87.96
2019-01-04T18:04:04.401Z,87.74
2019-01-04T18:06:33.106Z,88.54
2019-01-04T18:09:02.060Z,88.28
2019-01-04T18:11:30.668Z,88.20
2019-01-04T18:13:59.630Z,88.50
2019-01-04T18:16:28.624Z,88.05
2019-01-04T18:18:57.651Z,87.65
2019-01-04T18:21:26.546Z,87.65
2019-01-04T18:23:55.815Z,87.77
2019-01-04T18:26:24.701Z,87.58
2019-01-04T18:28:53.595Z,87.58
2019-01-04T18:31:22.588Z,87.32
2019-01-04T18:33:51.214Z,87.87
2019-01-04T18:36:19.841Z,87.77
2019-01-04T18:38:48.746Z,87.77
2019-01-04T18:41:17.728Z,87.80
2019-01-04T18:43:46.635Z,87.59
2019-01-04T18:46:15.829Z,87.13
2019-01-04T18:48:44.442Z,87.13
2019-01-04T18:51:13.071Z,87.32
2019-01-04T18:53:41.997Z,87.24
2019-01-04T18:56:11.196Z,87.01
2019-01-04T18:58:39.813Z,86.90
2019-01-04T19:01:13.711Z,86.95
2019-01-04T19:03:39.087Z,86.82
2019-01-04T19:06:07.992Z,86.85
2019-01-04T19:08:36.625Z,86.77
2019-01-04T19:11:05.267Z,86.56
2019-01-04T19:13:33.990Z,86.81
2019-01-04T19:16:02.933Z,86.81
2019-01-04T19:18:31.780Z,86.29
2019-01-04T19:21:00.729Z,86.15
2019-01-04T19:23:29.338Z,86.22
2019-01-04T19:25:57.935Z,86.22
2019-01-04T19:28:26.585Z,86.14
2019-01-04T19:30:55.206Z,85.90
2019-01-04T19:33:23.858Z,85.99
2019-01-04T19:35:52.477Z,85.81
2019-01-04T19:38:21.405Z,85.81
2019-01-04T19:40:50.320Z,85.83
2019-01-04T19:43:19.518Z,85.78
2019-01-04T19:45:48.452Z,85.90
2019-01-04T19:48:17.710Z,85.90
2019-01-04T19:50:46.702Z,85.74
2019-01-04T19:53:15.981Z,85.56
2019-01-04T19:55:44.609Z,85.56
2019-01-04T19:58:13.590Z,85.48
2019-01-04T20:00:42.571Z,85.28
2019-01-04T20:03:11.464Z,85.28
2019-01-04T20:06:36.532Z,85.86
2019-01-04T20:10:11.817Z,85.42
2019-01-04T20:13:36.016Z,85.26
2019-01-04T20:16:33.069Z,85.82
2019-01-04T20:19:24.688Z,85.82
2019-01-04T20:22:14.108Z,86.08
2019-01-04T20:25:02.506Z,85.86
2019-01-04T20:27:57.100Z,85.86
2019-01-04T20:30:48.518Z,86.26
2019-01-04T20:33:35.433Z,86.26
2019-01-04T20:36:26.167Z,86.48
2019-01-04T20:39:13.047Z,86.53
2019-01-04T20:42:06.506Z,86.12
2019-01-04T20:44:53.393Z,86.11
2019-01-04T20:47:44.407Z,86.56
2019-01-04T20:50:27.254Z,85.98
2019-01-04T20:53:14.475Z,85.98
2019-01-04T20:56:02.690Z,85.69
2019-01-04T20:58:56.691Z,85.69
2019-01-04T21:01:43.138Z,85.93
2019-01-04T21:04:35.027Z,86.13
2019-01-04T21:07:21.275Z,85.94
2019-01-04T21:10:31.184Z,85.91
2019-01-04T21:13:14.719Z,86.08
2019-01-04T21:15:57.313Z,86.08
2019-01-04T21:18:57.148Z,85.79
2019-01-04T21:21:44.065Z,85.83
2019-01-04T21:24:35.071Z,85.66
2019-01-04T21:27:26.492Z,85.50
2019-01-04T21:30:12.677Z,85.38
2019-01-04T21:33:07.396Z,85.23
2019-01-04T21:35:57.276Z,85.27
2019-01-04T21:39:00.572Z,85.64
2019-01-04T21:41:47.100Z,85.64
2019-01-04T21:44:33.719Z,85.68
2019-01-04T21:47:23.607Z,85.92
2019-01-04T21:50:23.744Z,85.99
2019-01-04T21:53:03.432Z,85.99
2019-01-04T21:55:49.204Z,86.29
2019-01-04T21:58:35.686Z,86.02
2019-01-04T22:01:22.476Z,86.02
2019-01-04T22:04:08.960Z,85.61
2019-01-04T22:06:55.853Z,85.61
2019-01-04T22:09:49.371Z,86.10
2019-01-04T22:12:37.358Z,85.87
2019-01-04T22:15:35.559Z,86.09
2019-01-04T22:18:22.653Z,86.06
2019-01-04T22:21:19.602Z,86.16
2019-01-04T22:24:07.006Z,86.16
2019-01-04T22:27:00.961Z,86.39
2019-01-04T22:29:50.481Z,86.39
2019-01-04T22:32:32.728Z,86.28
2019-01-04T22:35:18.988Z,86.28
2019-01-04T22:38:25.353Z,86.52
2019-01-04T22:41:16.192Z,86.56
2019-01-04T22:44:18.761Z,86.56
2019-01-04T22:47:06.474Z,87.01
2019-01-04T22:49:53.181Z,86.96
2019-01-04T22:52:40.710Z,87.25
2019-01-04T22:55:27.389Z,87.33
2019-01-04T22:58:23.421Z,87.78
2019-01-04T23:01:09.802Z,87.78
2019-01-04T23:03:56.958Z,87.69
2019-01-04T23:06:45.166Z,87.69
2019-01-04T23:09:32.860Z,87.71
2019-01-04T23:12:23.858Z,87.71
2019-01-04T23:15:06.470Z,87.89
2019-01-04T23:17:52.678Z,87.91
2019-01-04T23:20:39.475Z,87.98
2019-01-04T23:23:24.344Z,88.04
2019-01-04T23:26:10.473Z,87.85
2019-01-04T23:28:57.131Z,87.85
2019-01-04T23:31:57.295Z,88.10
2019-01-04T23:34:54.980Z,88.10
2019-01-04T23:37:45.298Z,88.27
2019-01-04T23:40:48.306Z,88.27
2019-01-04T23:43:30.831Z,87.98
2019-01-04T23:46:15.285Z,87.98
2019-01-04T23:48:56.670Z,88.15
2019-01-04T23:51:42.997Z,88.33
2019-01-04T23:54:31.012Z,88.21
2019-01-04T23:57:18.129Z,88.06
